createdAt,value
2023-03-29T00:02:07.966Z,101643.69
2023-03-29T00:04:55.384Z,101642.84
2023-03-29T00:07:42.340Z,101637.63
2023-03-29T00:10:31.043Z,101641.97
2023-03-29T00:13:18.376Z,101638.47
2023-03-29T00:16:05.227Z,101630.56
2023-03-29T00:18:52.127Z,101633.25
2023-03-29T00:21:38.981Z,101621.91
2023-03-29T00:24:26.390Z,101637.63
2023-03-29T00:27:13.204Z,101588.69
2023-03-29T00:30:00.324Z,101628.91
2023-03-29T00:32:47.240Z,101629.78
2023-03-29T00:35:34.386Z,101601.75
2023-03-29T00:38:21.281Z,101622.81
2023-03-29T00:41:08.379Z,101602.75
2023-03-29T00:44:50.282Z,101618.47
2023-03-29T00:47:41.126Z,101609.78
2023-03-29T00:50:25.020Z,101615.81
2023-03-29T00:53:02.784Z,101604.53
2023-03-29T00:55:34.490Z,101621.06
2023-03-29T00:58:05.189Z,101619.34
2023-03-29T01:00:38.067Z,101619.34
2023-03-29T01:03:14.101Z,101609.75
2023-03-29T01:05:46.860Z,101596.66
2023-03-29T01:08:27.760Z,101594.03
2023-03-29T01:11:13.447Z,101612.34
2023-03-29T01:14:06.561Z,101604.50
2023-03-29T01:16:38.276Z,101601.06
2023-03-29T01:19:09.065Z,101598.44
2023-03-29T01:21:43.668Z,101595.81
2023-03-29T01:24:32.398Z,101589.72
2023-03-29T01:27:12.633Z,101524.09
2023-03-29T01:29:45.741Z,101591.44
2023-03-29T01:32:26.871Z,101595.78
2023-03-29T01:34:59.682Z,101588.81
2023-03-29T01:37:36.425Z,101596.63
2023-03-29T01:40:05.458Z,101594.00
2023-03-29T01:43:06.495Z,101581.78
2023-03-29T01:45:50.336Z,101598.28
2023-03-29T01:48:40.561Z,101595.69
2023-03-29T01:51:15.178Z,101597.41
2023-03-29T01:54:00.453Z,101579.94
2023-03-29T01:56:34.232Z,101548.41
2023-03-29T01:59:09.356Z,101595.59
2023-03-29T02:01:42.576Z,101578.13
2023-03-29T02:04:14.342Z,101590.31
2023-03-29T02:06:41.962Z,101585.09
2023-03-29T02:09:09.363Z,101576.38
2023-03-29T02:11:37.810Z,101579.81
2023-03-29T02:14:05.550Z,101585.94
2023-03-29T02:16:39.162Z,101576.31
2023-03-29T02:19:07.981Z,101582.44
2023-03-29T02:22:01.910Z,101578.06
2023-03-29T02:24:32.327Z,101578.03
2023-03-29T02:27:01.223Z,101578.84
2023-03-29T02:29:28.939Z,101573.63
2023-03-29T02:32:20.355Z,101567.53
2023-03-29T02:35:16.086Z,101572.72
2023-03-29T02:37:47.723Z,101572.69
2023-03-29T02:40:16.672Z,101576.09
2023-03-29T02:42:45.998Z,101468.56
2023-03-29T02:45:17.436Z,101573.44
2023-03-29T02:47:56.974Z,101576.00
2023-03-29T02:50:27.857Z,101560.25
2023-03-29T02:53:00.462Z,101577.72
2023-03-29T02:55:34.922Z,101561.09
2023-03-29T02:58:10.340Z,101571.56
2023-03-29T03:00:43.241Z,101572.41
2023-03-29T03:03:10.342Z,101570.59
2023-03-29T03:05:38.427Z,101572.31
2023-03-29T03:08:07.536Z,101569.66
2023-03-29T03:10:35.479Z,101568.78
2023-03-29T03:13:04.131Z,101547.78
2023-03-29T03:15:35.791Z,101568.72
2023-03-29T03:18:04.170Z,101551.22
2023-03-29T03:20:32.232Z,101546.81
2023-03-29T03:22:59.171Z,101489.91
2023-03-29T03:25:26.537Z,101479.41
2023-03-29T03:27:53.664Z,101551.09
2023-03-29T03:30:23.517Z,101564.16
2023-03-29T03:32:54.971Z,101545.78
2023-03-29T03:35:41.279Z,101486.22
2023-03-29T03:38:08.964Z,101562.31
2023-03-29T03:40:36.211Z,101546.53
2023-03-29T03:43:04.078Z,101562.22
2023-03-29T03:45:31.436Z,101562.19
2023-03-29T03:48:04.251Z,101558.69
2023-03-29T03:51:13.026Z,101556.94
2023-03-29T03:54:00.419Z,101552.50
2023-03-29T03:56:56.333Z,101516.66
2023-03-29T04:00:04.395Z,101537.63
2023-03-29T04:03:00.211Z,101466.72
2023-03-29T04:05:47.481Z,101530.56
2023-03-29T04:08:36.780Z,101548.00
2023-03-29T04:11:35.606Z,101547.94
2023-03-29T04:14:22.710Z,101512.00
2023-03-29T04:17:22.623Z,101543.50
2023-03-29T04:20:23.000Z,101543.44
2023-03-29T04:23:10.922Z,101545.19
2023-03-29T04:25:59.296Z,101546.88
2023-03-29T04:29:18.388Z,101541.56
2023-03-29T04:32:10.144Z,101533.69
2023-03-29T04:35:24.057Z,101531.94
2023-03-29T04:38:11.125Z,101482.84
2023-03-29T04:40:59.435Z,101501.22
2023-03-29T04:44:00.242Z,101544.00
2023-03-29T04:46:53.083Z,101539.63
2023-03-29T04:49:42.869Z,101549.13
2023-03-29T04:52:37.503Z,101544.75
2023-03-29T04:55:27.368Z,101537.75
2023-03-29T04:58:23.625Z,101528.91
2023-03-29T05:01:16.039Z,101545.47
2023-03-29T05:04:12.561Z,101541.97
2023-03-29T05:07:07.053Z,101474.59
2023-03-29T05:09:53.908Z,101501.66
2023-03-29T05:12:41.578Z,101543.63
2023-03-29T05:15:30.430Z,101540.13
2023-03-29T05:18:17.663Z,101536.59
2023-03-29T05:21:04.936Z,101541.78
2023-03-29T05:23:53.949Z,101527.91
2023-03-29T05:27:03.747Z,101523.44
2023-03-29T05:29:53.583Z,101505.94
2023-03-29T05:33:03.569Z,101533.03
2023-03-29T05:35:51.289Z,101526.09
2023-03-29T05:38:38.236Z,101533.88
2023-03-29T05:41:25.744Z,101533.88
2023-03-29T05:44:31.409Z,101454.31
2023-03-29T05:47:30.994Z,101528.66
2023-03-29T05:50:18.049Z,101510.28
2023-03-29T05:53:05.290Z,101511.16
2023-03-29T05:55:53.305Z,101483.25
2023-03-29T05:58:42.946Z,101528.69
2023-03-29T06:01:33.803Z,101526.97
2023-03-29T06:04:25.713Z,101530.41
2023-03-29T06:07:39.058Z,101526.13
2023-03-29T06:10:52.122Z,101524.44
2023-03-29T06:14:11.021Z,101522.75
2023-03-29T06:17:06.191Z,101525.25
2023-03-29T06:19:53.194Z,101521.91
2023-03-29T06:22:44.058Z,101525.38
2023-03-29T06:25:31.927Z,101500.13
2023-03-29T06:28:18.892Z,101518.53
2023-03-29T06:31:07.057Z,101506.34
2023-03-29T06:33:58.816Z,101525.53
2023-03-29T06:37:11.773Z,101523.00
2023-03-29T06:39:59.849Z,101523.84
2023-03-29T06:42:54.241Z,101516.97
2023-03-29T06:46:00.410Z,101445.25
2023-03-29T06:48:58.583Z,101519.66
2023-03-29T06:51:53.700Z,101518.78
2023-03-29T06:54:40.749Z,101520.59
2023-03-29T06:57:28.469Z,101520.66
2023-03-29T07:00:15.740Z,101518.97
2023-03-29T07:03:26.409Z,101517.25
2023-03-29T07:06:21.080Z,101519.91
2023-03-29T07:09:09.437Z,101504.34
2023-03-29T07:12:25.622Z,101511.31
2023-03-29T07:15:16.748Z,101471.16
2023-03-29T07:18:30.769Z,101506.16
2023-03-29T07:21:17.785Z,101487.97
2023-03-29T07:24:04.961Z,101476.50
2023-03-29T07:27:03.426Z,101512.44
2023-03-29T07:29:52.234Z,101509.03
2023-03-29T07:32:39.797Z,101491.63
2023-03-29T07:35:46.741Z,101501.22
2023-03-29T07:38:34.856Z,101493.50
2023-03-29T07:41:27.221Z,101498.78
2023-03-29T07:44:33.366Z,101505.78
2023-03-29T07:47:23.771Z,101513.66
2023-03-29T07:50:10.780Z,101516.28
2023-03-29T07:52:58.830Z,101516.34
2023-03-29T07:55:47.731Z,101509.41
2023-03-29T07:59:10.509Z,101409.84
2023-03-29T08:01:59.444Z,101389.81
2023-03-29T08:04:52.787Z,101518.22
2023-03-29T08:07:42.790Z,101526.16
2023-03-29T08:10:45.421Z,101517.50
2023-03-29T08:13:50.497Z,101519.31
2023-03-29T08:16:46.871Z,101475.69
2023-03-29T08:19:35.991Z,101508.06
2023-03-29T08:22:25.565Z,101462.59
2023-03-29T08:25:30.896Z,101521.22
2023-03-29T08:28:18.609Z,101511.75
2023-03-29T08:31:10.862Z,101440.94
2023-03-29T08:34:00.425Z,101475.97
2023-03-29T08:37:07.801Z,101462.03
2023-03-29T08:40:00.694Z,101498.00
2023-03-29T08:43:25.952Z,101513.75
2023-03-29T08:47:20.255Z,101507.75
2023-03-29T08:50:13.504Z,101493.84
2023-03-29T08:53:13.407Z,101506.13
2023-03-29T08:56:30.813Z,101505.31
2023-03-29T08:59:20.319Z,101505.38
2023-03-29T09:02:12.910Z,101498.50
2023-03-29T09:05:01.269Z,101495.97
2023-03-29T09:07:58.772Z,101508.16
2023-03-29T09:10:54.830Z,101496.09
2023-03-29T09:13:56.742Z,101489.22
2023-03-29T09:16:58.846Z,101492.75
2023-03-29T09:19:52.681Z,101424.69
2023-03-29T09:23:00.231Z,101491.13
2023-03-29T09:25:56.294Z,101486.84
2023-03-29T09:29:06.132Z,101486.03
2023-03-29T09:31:59.228Z,101481.72
2023-03-29T09:34:57.110Z,101398.88
2023-03-29T09:37:57.072Z,101480.94
2023-03-29T09:40:57.696Z,101480.09
2023-03-29T09:43:55.333Z,101475.78
2023-03-29T09:46:58.416Z,101462.72
2023-03-29T09:49:56.327Z,101469.72
2023-03-29T09:52:43.371Z,101455.84
2023-03-29T09:55:40.589Z,101474.19
2023-03-29T09:58:47.457Z,101394.84
2023-03-29T10:01:40.244Z,101472.50
2023-03-29T10:04:31.853Z,101464.69
2023-03-29T10:07:20.829Z,101464.72
2023-03-29T10:10:15.801Z,101455.16
2023-03-29T10:13:10.584Z,101461.25
2023-03-29T10:15:57.734Z,101453.41
2023-03-29T10:18:47.634Z,101456.06
2023-03-29T10:21:38.368Z,101452.59
2023-03-29T10:24:26.097Z,101461.31
2023-03-29T10:27:22.728Z,101462.19
2023-03-29T10:30:11.189Z,101459.56
2023-03-29T10:32:59.063Z,101465.66
2023-03-29T10:36:00.700Z,101444.72
2023-03-29T10:38:49.995Z,101454.31
2023-03-29T10:41:37.825Z,101413.34
2023-03-29T10:44:24.903Z,101444.72
2023-03-29T10:47:11.920Z,101456.91
2023-03-29T10:50:05.092Z,101456.00
2023-03-29T10:52:53.765Z,101466.47
2023-03-29T10:55:42.662Z,101456.00
2023-03-29T10:58:35.924Z,101458.59
2023-03-29T11:01:23.353Z,101455.09
2023-03-29T11:04:38.505Z,101458.56
2023-03-29T11:07:25.520Z,101454.19
2023-03-29T11:10:31.138Z,101457.66
2023-03-29T11:13:23.767Z,101462.00
2023-03-29T11:16:20.822Z,101451.56
2023-03-29T11:19:13.724Z,101461.16
2023-03-29T11:22:10.603Z,101456.75
2023-03-29T11:24:57.542Z,101454.13
2023-03-29T11:28:11.223Z,101448.91
2023-03-29T11:31:11.518Z,101443.66
2023-03-29T11:34:16.342Z,101449.78
2023-03-29T11:37:28.221Z,101451.53
2023-03-29T11:40:33.334Z,101446.31
2023-03-29T11:43:23.249Z,101455.88
2023-03-29T11:46:28.467Z,101457.63
2023-03-29T11:49:40.111Z,101457.63
2023-03-29T11:52:42.076Z,101446.28
2023-03-29T11:55:32.479Z,101434.97
2023-03-29T11:58:25.908Z,101451.50
2023-03-29T12:01:18.279Z,101393.13
2023-03-29T12:04:21.941Z,101451.50
2023-03-29T12:07:21.477Z,101445.38
2023-03-29T12:10:15.566Z,101450.59
2023-03-29T12:13:08.919Z,101449.72
2023-03-29T12:16:01.843Z,101445.38
2023-03-29T12:19:02.226Z,101423.56
2023-03-29T12:21:50.531Z,101443.63
2023-03-29T12:24:40.934Z,101431.41
2023-03-29T12:27:43.037Z,101445.38
2023-03-29T12:30:43.671Z,101439.25
2023-03-29T12:33:55.990Z,101440.13
2023-03-29T12:37:01.132Z,101433.13
2023-03-29T12:40:06.942Z,101405.25
2023-03-29T12:43:17.899Z,101433.97
2023-03-29T12:46:44.401Z,101434.84
2023-03-29T12:49:41.266Z,101432.19
2023-03-29T12:52:56.688Z,101443.53
2023-03-29T12:55:53.615Z,101437.38
2023-03-29T12:58:46.196Z,101433.84
2023-03-29T13:01:47.269Z,101427.66
2023-03-29T13:04:38.272Z,101407.63
2023-03-29T13:07:25.726Z,101424.13
2023-03-29T13:10:25.280Z,101441.56
2023-03-29T13:13:12.855Z,101433.69
2023-03-29T13:16:00.453Z,101438.94
2023-03-29T13:19:06.384Z,101445.06
2023-03-29T13:22:33.032Z,101435.41
2023-03-29T13:25:35.159Z,101430.13
2023-03-29T13:28:53.370Z,101432.75
2023-03-29T13:31:49.571Z,101426.59
2023-03-29T13:34:48.494Z,101430.03
2023-03-29T13:38:19.693Z,101431.72
2023-03-29T13:41:18.522Z,101433.44
2023-03-29T13:44:14.494Z,101431.69
2023-03-29T13:47:04.209Z,101438.63
2023-03-29T13:49:54.355Z,101383.75
2023-03-29T13:52:50.312Z,101424.66
2023-03-29T13:56:12.303Z,101374.22
2023-03-29T13:59:07.934Z,101437.78
2023-03-29T14:02:11.451Z,101434.28
2023-03-29T14:05:07.566Z,101430.81
2023-03-29T14:07:59.123Z,101434.31
2023-03-29T14:10:59.949Z,101417.84
2023-03-29T14:13:46.950Z,101433.50
2023-03-29T14:16:34.011Z,101397.84
2023-03-29T14:19:35.055Z,101437.91
2023-03-29T14:22:23.425Z,101406.59
2023-03-29T14:25:14.639Z,101417.91
2023-03-29T14:28:02.002Z,101422.22
2023-03-29T14:30:49.331Z,101418.78
2023-03-29T14:33:47.847Z,101389.16
2023-03-29T14:36:36.967Z,101416.97
2023-03-29T14:39:42.259Z,101393.50
2023-03-29T14:42:35.160Z,101417.88
2023-03-29T14:45:25.309Z,101417.84
2023-03-29T14:48:12.761Z,101427.47
2023-03-29T14:51:00.329Z,101366.56
2023-03-29T14:53:48.308Z,101431.88
2023-03-29T14:56:37.125Z,101428.34
2023-03-29T14:59:24.776Z,101438.84
2023-03-29T15:02:12.655Z,101422.22
2023-03-29T15:05:00.221Z,101431.84
2023-03-29T15:07:48.275Z,101424.84
2023-03-29T15:10:39.165Z,101426.63
2023-03-29T15:13:27.856Z,101436.22
2023-03-29T15:16:20.660Z,101425.75
2023-03-29T15:19:11.626Z,101429.28
2023-03-29T15:22:00.517Z,101428.38
2023-03-29T15:24:52.477Z,101432.75
2023-03-29T15:27:39.687Z,101402.28
2023-03-29T15:30:35.521Z,101432.75
2023-03-29T15:33:53.157Z,101414.44
2023-03-29T15:36:40.035Z,101432.75
2023-03-29T15:39:26.928Z,101379.63
2023-03-29T15:42:16.130Z,101415.28
2023-03-29T15:45:03.289Z,101425.78
2023-03-29T15:47:51.784Z,101424.91
2023-03-29T15:50:38.715Z,101413.63
2023-03-29T15:53:25.764Z,101421.44
2023-03-29T15:56:14.726Z,101420.56
2023-03-29T15:58:41.859Z,101433.69
2023-03-29T16:01:39.594Z,101414.50
2023-03-29T16:04:30.208Z,101415.38
2023-03-29T16:07:17.197Z,101429.34
2023-03-29T16:10:05.502Z,101400.59
2023-03-29T16:12:52.541Z,101435.44
2023-03-29T16:15:43.731Z,101351.88
2023-03-29T16:18:30.681Z,101418.06
2023-03-29T16:21:17.723Z,101437.22
2023-03-29T16:24:06.187Z,101425.91
2023-03-29T16:26:55.358Z,101426.72
2023-03-29T16:29:43.592Z,101373.63
2023-03-29T16:32:30.518Z,101388.41
2023-03-29T16:35:17.466Z,101423.25
2023-03-29T16:38:04.407Z,101398.84
2023-03-29T16:40:51.259Z,101424.09
2023-03-29T16:43:38.816Z,101373.63
2023-03-29T16:46:25.686Z,101382.34
2023-03-29T16:49:12.791Z,101424.16
2023-03-29T16:51:59.763Z,101425.03
2023-03-29T16:54:46.988Z,101415.50
